sensor_id;sensor_type;location;lat;lon;timestamp;P1;durP1;ratioP1;P2;durP2;ratioP2
29576;SDS011;16509;53.862;10.672;2023-02-01T00:02:24;38.35;;;3.45;;
29576;SDS011;16509;53.862;10.672;2023-02-01T00:04:49;23.77;;;3.58;;
29576;SDS011;16509;53.862;10.672;2023-02-01T00:07:15;35.58;;;3.92;;
29576;SDS011;16509;53.862;10.672;2023-02-01T00:09:41;18.77;;;2.88;;
29576;SDS011;16509;53.862;10.672;2023-02-01T00:12:06;35.38;;;3.80;;
29576;SDS011;16509;53.862;10.672;2023-02-01T00:14:32;24.42;;;3.15;;
29576;SDS011;16509;53.862;10.672;2023-02-01T00:17:03;21.52;;;3.35;;
29576;SDS011;16509;53.862;10.672;2023-02-01T00:19:30;20.98;;;3.50;;
29576;SDS011;16509;53.862;10.672;2023-02-01T00:21:55;19.30;;;3.28;;
29576;SDS011;16509;53.862;10.672;2023-02-01T00:24:21;20.10;;;2.47;;
29576;SDS011;16509;53.862;10.672;2023-02-01T00:26:46;18.55;;;2.40;;
29576;SDS011;16509;53.862;10.672;2023-02-01T00:29:15;28.00;;;4.25;;
29576;SDS011;16509;53.862;10.672;2023-02-01T00:31:42;27.42;;;4.38;;
29576;SDS011;16509;53.862;10.672;2023-02-01T00:34:10;26.70;;;2.97;;
29576;SDS011;16509;53.862;10.672;2023-02-01T00:36:38;23.00;;;3.13;;
29576;SDS011;16509;53.862;10.672;2023-02-01T00:39:03;27.20;;;3.05;;
29576;SDS011;16509;53.862;10.672;2023-02-01T00:41:29;39.67;;;3.58;;
29576;SDS011;16509;53.862;10.672;2023-02-01T00:43:55;27.23;;;3.35;;
29576;SDS011;16509;53.862;10.672;2023-02-01T00:46:21;24.17;;;3.13;;
29576;SDS011;16509;53.862;10.672;2023-02-01T00:48:47;28.13;;;3.40;;
29576;SDS011;16509;53.862;10.672;2023-02-01T00:51:17;23.23;;;3.65;;
29576;SDS011;16509;53.862;10.672;2023-02-01T00:53:45;27.35;;;3.60;;
29576;SDS011;16509;53.862;10.672;2023-02-01T00:56:11;14.35;;;2.80;;
29576;SDS011;16509;53.862;10.672;2023-02-01T00:58:39;14.32;;;2.60;;
29576;SDS011;16509;53.862;10.672;2023-02-01T01:01:07;27.40;;;3.55;;
29576;SDS011;16509;53.862;10.672;2023-02-01T01:03:36;24.27;;;3.72;;
29576;SDS011;16509;53.862;10.672;2023-02-01T01:06:04;31.45;;;3.40;;
29576;SDS011;16509;53.862;10.672;2023-02-01T01:08:32;35.03;;;3.30;;
29576;SDS011;16509;53.862;10.672;2023-02-01T01:11:05;19.25;;;3.30;;
29576;SDS011;16509;53.862;10.672;2023-02-01T01:13:33;26.27;;;3.38;;
29576;SDS011;16509;53.862;10.672;2023-02-01T01:16:03;33.35;;;3.25;;
29576;SDS011;16509;53.862;10.672;2023-02-01T01:18:30;27.70;;;4.57;;
29576;SDS011;16509;53.862;10.672;2023-02-01T01:20:56;43.55;;;3.78;;
29576;SDS011;16509;53.862;10.672;2023-02-01T01:23:23;25.27;;;3.50;;
29576;SDS011;16509;53.862;10.672;2023-02-01T01:25:49;27.83;;;3.00;;
29576;SDS011;16509;53.862;10.672;2023-02-01T01:28:15;34.80;;;3.05;;
29576;SDS011;16509;53.862;10.672;2023-02-01T01:30:40;24.05;;;3.63;;
29576;SDS011;16509;53.862;10.672;2023-02-01T01:33:06;18.17;;;3.13;;
29576;SDS011;16509;53.862;10.672;2023-02-01T01:35:33;28.38;;;3.88;;
29576;SDS011;16509;53.862;10.672;2023-02-01T01:37:59;27.65;;;2.90;;
29576;SDS011;16509;53.862;10.672;2023-02-01T01:40:25;29.10;;;3.53;;
29576;SDS011;16509;53.862;10.672;2023-02-01T01:42:52;28.23;;;3.25;;
29576;SDS011;16509;53.862;10.672;2023-02-01T01:45:33;19.33;;;2.40;;
29576;SDS011;16509;53.862;10.672;2023-02-01T01:48:08;31.00;;;4.35;;
29576;SDS011;16509;53.862;10.672;2023-02-01T01:50:56;35.13;;;3.45;;
29576;SDS011;16509;53.862;10.672;2023-02-01T01:53:28;30.92;;;3.53;;
29576;SDS011;16509;53.862;10.672;2023-02-01T01:56:02;24.50;;;3.58;;
29576;SDS011;16509;53.862;10.672;2023-02-01T01:58:28;35.50;;;3.92;;
29576;SDS011;16509;53.862;10.672;2023-02-01T02:00:55;25.30;;;4.10;;
29576;SDS011;16509;53.862;10.672;2023-02-01T02:03:22;30.10;;;3.47;;
29576;SDS011;16509;53.862;10.672;2023-02-01T02:05:52;25.50;;;3.60;;
29576;SDS011;16509;53.862;10.672;2023-02-01T02:08:20;34.72;;;3.55;;
29576;SDS011;16509;53.862;10.672;2023-02-01T02:10:50;34.67;;;3.53;;
29576;SDS011;16509;53.862;10.672;2023-02-01T02:13:32;19.88;;;3.35;;
29576;SDS011;16509;53.862;10.672;2023-02-01T02:41:00;37.33;;;4.53;;
29576;SDS011;16509;53.862;10.672;2023-02-01T02:44:16;24.88;;;3.03;;
29576;SDS011;16509;53.862;10.672;2023-02-01T02:47:10;39.70;;;4.25;;
29576;SDS011;16509;53.862;10.672;2023-02-01T02:49:52;34.17;;;3.30;;
29576;SDS011;16509;53.862;10.672;2023-02-01T02:52:52;22.52;;;3.67;;
29576;SDS011;16509;53.862;10.672;2023-02-01T02:55:53;30.65;;;3.65;;
29576;SDS011;16509;53.862;10.672;2023-02-01T02:58:37;30.02;;;3.90;;
29576;SDS011;16509;53.862;10.672;2023-02-01T03:01:21;41.00;;;4.55;;
29576;SDS011;16509;53.862;10.672;2023-02-01T03:04:06;40.63;;;4.22;;
29576;SDS011;16509;53.862;10.672;2023-02-01T03:06:37;22.25;;;2.80;;
29576;SDS011;16509;53.862;10.672;2023-02-01T03:15:21;37.97;;;3.78;;
29576;SDS011;16509;53.862;10.672;2023-02-01T03:17:51;22.13;;;3.30;;
29576;SDS011;16509;53.862;10.672;2023-02-01T03:20:19;48.45;;;4.55;;
29576;SDS011;16509;53.862;10.672;2023-02-01T03:22:44;29.70;;;3.85;;
29576;SDS011;16509;53.862;10.672;2023-02-01T03:25:18;21.65;;;3.55;;
29576;SDS011;16509;53.862;10.672;2023-02-01T03:32:46;27.65;;;4.03;;
29576;SDS011;16509;53.862;10.672;2023-02-01T03:35:37;34.20;;;3.75;;
29576;SDS011;16509;53.862;10.672;2023-02-01T03:40:52;20.02;;;2.83;;
29576;SDS011;16509;53.862;10.672;2023-02-01T03:43:22;21.45;;;2.70;;
29576;SDS011;16509;53.862;10.672;2023-02-01T03:45:53;23.17;;;2.85;;
29576;SDS011;16509;53.862;10.672;2023-02-01T03:48:23;18.13;;;2.83;;
29576;SDS011;16509;53.862;10.672;2023-02-01T03:50:53;15.20;;;1.98;;
29576;SDS011;16509;53.862;10.672;2023-02-01T03:53:22;17.33;;;2.05;;
29576;SDS011;16509;53.862;10.672;2023-02-01T03:55:50;23.17;;;2.70;;
29576;SDS011;16509;53.862;10.672;2023-02-01T03:58:18;23.33;;;2.38;;
29576;SDS011;16509;53.862;10.672;2023-02-01T04:00:46;16.13;;;2.88;;
29576;SDS011;16509;53.862;10.672;2023-02-01T04:03:17;17.55;;;2.85;;
29576;SDS011;16509;53.862;10.672;2023-02-01T04:05:44;14.55;;;2.15;;
29576;SDS011;16509;53.862;10.672;2023-02-01T04:08:09;18.70;;;2.95;;
29576;SDS011;16509;53.862;10.672;2023-02-01T04:10:38;9.27;;;2.45;;
29576;SDS011;16509;53.862;10.672;2023-02-01T04:13:05;16.02;;;2.45;;
29576;SDS011;16509;53.862;10.672;2023-02-01T04:15:31;15.20;;;2.88;;
29576;SDS011;16509;53.862;10.672;2023-02-01T04:17:57;15.38;;;2.53;;
29576;SDS011;16509;53.862;10.672;2023-02-01T04:20:22;22.13;;;2.60;;
29576;SDS011;16509;53.862;10.672;2023-02-01T04:22:48;16.02;;;2.30;;
29576;SDS011;16509;53.862;10.672;2023-02-01T04:25:14;12.15;;;1.83;;
29576;SDS011;16509;53.862;10.672;2023-02-01T04:27:39;9.07;;;1.75;;
29576;SDS011;16509;53.862;10.672;2023-02-01T04:30:05;11.63;;;1.48;;
29576;SDS011;16509;53.862;10.672;2023-02-01T04:32:34;3.20;;;1.00;;
29576;SDS011;16509;53.862;10.672;2023-02-01T04:35:00;3.60;;;0.95;;
29576;SDS011;16509;53.862;10.672;2023-02-01T04:37:26;7.93;;;1.52;;
29576;SDS011;16509;53.862;10.672;2023-02-01T04:39:52;4.80;;;1.00;;
29576;SDS011;16509;53.862;10.672;2023-02-01T04:42:17;5.68;;;1.35;;
29576;SDS011;16509;53.862;10.672;2023-02-01T04:44:43;3.05;;;1.05;;
29576;SDS011;16509;53.862;10.672;2023-02-01T04:47:08;7.60;;;1.80;;
29576;SDS011;16509;53.862;10.672;2023-02-01T04:49:34;4.15;;;1.20;;
29576;SDS011;16509;53.862;10.672;2023-02-01T04:52:00;5.78;;;1.20;;
29576;SDS011;16509;53.862;10.672;2023-02-01T04:54:25;6.75;;;1.23;;
29576;SDS011;16509;53.862;10.672;2023-02-01T04:56:51;13.65;;;2.05;;
29576;SDS011;16509;53.862;10.672;2023-02-01T04:59:17;6.38;;;1.20;;
29576;SDS011;16509;53.862;10.672;2023-02-01T05:01:42;5.00;;;1.20;;
29576;SDS011;16509;53.862;10.672;2023-02-01T05:04:08;11.45;;;1.45;;
29576;SDS011;16509;53.862;10.672;2023-02-01T05:06:34;4.25;;;1.13;;
29576;SDS011;16509;53.862;10.672;2023-02-01T05:09:00;12.77;;;1.85;;
29576;SDS011;16509;53.862;10.672;2023-02-01T05:11:25;4.18;;;1.05;;
29576;SDS011;16509;53.862;10.672;2023-02-01T05:14:10;11.82;;;1.15;;
29576;SDS011;16509;53.862;10.672;2023-02-01T05:16:36;9.98;;;1.08;;
29576;SDS011;16509;53.862;10.672;2023-02-01T05:19:01;11.18;;;2.28;;
29576;SDS011;16509;53.862;10.672;2023-02-01T05:21:27;6.13;;;1.77;;
29576;SDS011;16509;53.862;10.672;2023-02-01T05:23:53;4.47;;;1.30;;
29576;SDS011;16509;53.862;10.672;2023-02-01T05:26:37;3.55;;;1.02;;
29576;SDS011;16509;53.862;10.672;2023-02-01T05:29:04;13.05;;;2.10;;
29576;SDS011;16509;53.862;10.672;2023-02-01T05:31:32;7.38;;;1.50;;
29576;SDS011;16509;53.862;10.672;2023-02-01T05:34:08;5.97;;;1.60;;
29576;SDS011;16509;53.862;10.672;2023-02-01T05:36:47;7.20;;;1.83;;
29576;SDS011;16509;53.862;10.672;2023-02-01T05:39:22;16.40;;;2.88;;
29576;SDS011;16509;53.862;10.672;2023-02-01T05:41:54;13.55;;;2.00;;
29576;SDS011;16509;53.862;10.672;2023-02-01T05:44:38;12.45;;;2.35;;
29576;SDS011;16509;53.862;10.672;2023-02-01T05:47:04;11.10;;;1.80;;
29576;SDS011;16509;53.862;10.672;2023-02-01T05:49:32;18.98;;;2.70;;
29576;SDS011;16509;53.862;10.672;2023-02-01T05:52:11;14.85;;;2.15;;
29576;SDS011;16509;53.862;10.672;2023-02-01T05:54:46;13.85;;;1.67;;
29576;SDS011;16509;53.862;10.672;2023-02-01T05:57:18;10.43;;;1.35;;
29576;SDS011;16509;53.862;10.672;2023-02-01T05:59:52;7.43;;;1.23;;
29576;SDS011;16509;53.862;10.672;2023-02-01T06:02:23;7.97;;;1.30;;
29576;SDS011;16509;53.862;10.672;2023-02-01T06:04:49;4.68;;;1.45;;
29576;SDS011;16509;53.862;10.672;2023-02-01T06:07:18;12.60;;;1.85;;
29576;SDS011;16509;53.862;10.672;2023-02-01T06:09:44;7.20;;;1.67;;
29576;SDS011;16509;53.862;10.672;2023-02-01T06:12:09;6.18;;;1.17;;
29576;SDS011;16509;53.862;10.672;2023-02-01T06:14:35;11.02;;;1.83;;
29576;SDS011;16509;53.862;10.672;2023-02-01T06:17:03;7.47;;;2.08;;
29576;SDS011;16509;53.862;10.672;2023-02-01T06:19:28;17.75;;;2.00;;
29576;SDS011;16509;53.862;10.672;2023-02-01T06:21:54;10.25;;;1.50;;
29576;SDS011;16509;53.862;10.672;2023-02-01T06:24:21;10.77;;;1.95;;
29576;SDS011;16509;53.862;10.672;2023-02-01T06:26:47;6.88;;;1.50;;
29576;SDS011;16509;53.862;10.672;2023-02-01T06:29:15;12.13;;;1.65;;
29576;SDS011;16509;53.862;10.672;2023-02-01T06:34:32;8.15;;;1.40;;
29576;SDS011;16509;53.862;10.672;2023-02-01T06:37:06;8.05;;;1.20;;
29576;SDS011;16509;53.862;10.672;2023-02-01T06:39:45;6.53;;;1.52;;
29576;SDS011;16509;53.862;10.672;2023-02-01T06:42:13;4.78;;;1.17;;
29576;SDS011;16509;53.862;10.672;2023-02-01T06:44:39;2.80;;;1.08;;
29576;SDS011;16509;53.862;10.672;2023-02-01T06:47:05;5.38;;;1.10;;
29576;SDS011;16509;53.862;10.672;2023-02-01T06:49:31;9.23;;;1.35;;
29576;SDS011;16509;53.862;10.672;2023-02-01T06:51:57;6.47;;;1.08;;
29576;SDS011;16509;53.862;10.672;2023-02-01T06:54:26;16.17;;;1.50;;
29576;SDS011;16509;53.862;10.672;2023-02-01T06:56:53;6.90;;;1.23;;
29576;SDS011;16509;53.862;10.672;2023-02-01T06:59:20;7.10;;;1.27;;
29576;SDS011;16509;53.862;10.672;2023-02-01T07:01:45;5.88;;;1.13;;
29576;SDS011;16509;53.862;10.672;2023-02-01T07:04:11;13.15;;;2.28;;
29576;SDS011;16509;53.862;10.672;2023-02-01T07:06:40;6.20;;;1.52;;
29576;SDS011;16509;53.862;10.672;2023-02-01T07:09:06;9.55;;;1.40;;
29576;SDS011;16509;53.862;10.672;2023-02-01T07:11:33;13.95;;;1.58;;
29576;SDS011;16509;53.862;10.672;2023-02-01T07:13:58;12.57;;;1.40;;
29576;SDS011;16509;53.862;10.672;2023-02-01T07:16:24;20.90;;;2.00;;
29576;SDS011;16509;53.862;10.672;2023-02-01T07:21:19;4.50;;;1.77;;
29576;SDS011;16509;53.862;10.672;2023-02-01T07:23:47;8.35;;;1.33;;
29576;SDS011;16509;53.862;10.672;2023-02-01T07:26:13;10.32;;;1.50;;
29576;SDS011;16509;53.862;10.672;2023-02-01T07:28:40;19.40;;;2.25;;
29576;SDS011;16509;53.862;10.672;2023-02-01T07:31:09;8.07;;;1.27;;
29576;SDS011;16509;53.862;10.672;2023-02-01T07:33:37;5.55;;;1.42;;
29576;SDS011;16509;53.862;10.672;2023-02-01T07:36:03;6.03;;;1.55;;
29576;SDS011;16509;53.862;10.672;2023-02-01T07:38:33;5.68;;;1.80;;
29576;SDS011;16509;53.862;10.672;2023-02-01T07:41:01;8.82;;;1.73;;
29576;SDS011;16509;53.862;10.672;2023-02-01T07:43:28;8.80;;;2.22;;
29576;SDS011;16509;53.862;10.672;2023-02-01T07:45:54;12.35;;;1.52;;
29576;SDS011;16509;53.862;10.672;2023-02-01T07:48:21;18.13;;;2.42;;
29576;SDS011;16509;53.862;10.672;2023-02-01T07:50:48;13.68;;;2.25;;
29576;SDS011;16509;53.862;10.672;2023-02-01T07:53:21;10.68;;;1.90;;
29576;SDS011;16509;53.862;10.672;2023-02-01T07:55:49;3.60;;;1.50;;
29576;SDS011;16509;53.862;10.672;2023-02-01T07:58:14;10.60;;;2.38;;
29576;SDS011;16509;53.862;10.672;2023-02-01T08:00:41;9.88;;;1.60;;
29576;SDS011;16509;53.862;10.672;2023-02-01T08:03:25;14.43;;;2.17;;
29576;SDS011;16509;53.862;10.672;2023-02-01T08:05:54;14.95;;;2.03;;
29576;SDS011;16509;53.862;10.672;2023-02-01T08:08:20;15.38;;;2.47;;
29576;SDS011;16509;53.862;10.672;2023-02-01T08:10:46;11.63;;;3.20;;
29576;SDS011;16509;53.862;10.672;2023-02-01T08:13:11;18.13;;;1.75;;
29576;SDS011;16509;53.862;10.672;2023-02-01T08:18:06;16.75;;;2.75;;
29576;SDS011;16509;53.862;10.672;2023-02-01T08:20:33;24.58;;;2.72;;
29576;SDS011;16509;53.862;10.672;2023-02-01T08:23:02;23.23;;;2.65;;
29576;SDS011;16509;53.862;10.672;2023-02-01T08:25:28;31.25;;;4.00;;
29576;SDS011;16509;53.862;10.672;2023-02-01T08:27:54;19.05;;;3.50;;
29576;SDS011;16509;53.862;10.672;2023-02-01T08:30:20;27.13;;;4.13;;
29576;SDS011;16509;53.862;10.672;2023-02-01T08:32:46;37.53;;;3.40;;
29576;SDS011;16509;53.862;10.672;2023-02-01T08:35:12;39.22;;;3.80;;
29576;SDS011;16509;53.862;10.672;2023-02-01T08:37:37;18.55;;;2.78;;
29576;SDS011;16509;53.862;10.672;2023-02-01T08:40:03;29.10;;;3.67;;
29576;SDS011;16509;53.862;10.672;2023-02-01T08:42:30;30.80;;;3.35;;
29576;SDS011;16509;53.862;10.672;2023-02-01T08:45:16;35.55;;;4.45;;
29576;SDS011;16509;53.862;10.672;2023-02-01T08:47:44;31.58;;;3.08;;
29576;SDS011;16509;53.862;10.672;2023-02-01T08:50:10;28.50;;;3.30;;
29576;SDS011;16509;53.862;10.672;2023-02-01T08:52:35;25.65;;;3.00;;
29576;SDS011;16509;53.862;10.672;2023-02-01T08:55:02;29.17;;;3.63;;
29576;SDS011;16509;53.862;10.672;2023-02-01T08:57:28;18.70;;;3.20;;
29576;SDS011;16509;53.862;10.672;2023-02-01T08:59:53;34.70;;;3.45;;
29576;SDS011;16509;53.862;10.672;2023-02-01T09:02:19;14.77;;;2.38;;
29576;SDS011;16509;53.862;10.672;2023-02-01T09:04:45;15.70;;;2.80;;
29576;SDS011;16509;53.862;10.672;2023-02-01T09:07:11;24.58;;;3.08;;
29576;SDS011;16509;53.862;10.672;2023-02-01T09:09:38;16.13;;;3.45;;
29576;SDS011;16509;53.862;10.672;2023-02-01T09:12:04;25.02;;;3.38;;
29576;SDS011;16509;53.862;10.672;2023-02-01T09:14:30;20.05;;;3.40;;
29576;SDS011;16509;53.862;10.672;2023-02-01T09:16:55;37.23;;;3.30;;
29576;SDS011;16509;53.862;10.672;2023-02-01T09:19:21;23.90;;;3.75;;
29576;SDS011;16509;53.862;10.672;2023-02-01T09:21:47;19.90;;;3.05;;
29576;SDS011;16509;53.862;10.672;2023-02-01T09:24:13;18.27;;;2.90;;
29576;SDS011;16509;53.862;10.672;2023-02-01T09:26:38;25.40;;;2.95;;
29576;SDS011;16509;53.862;10.672;2023-02-01T09:29:04;30.35;;;2.50;;
29576;SDS011;16509;53.862;10.672;2023-02-01T09:31:39;35.47;;;3.50;;
29576;SDS011;16509;53.862;10.672;2023-02-01T09:34:05;21.13;;;2.88;;
29576;SDS011;16509;53.862;10.672;2023-02-01T09:36:31;18.73;;;2.58;;
29576;SDS011;16509;53.862;10.672;2023-02-01T09:38:58;21.65;;;2.88;;
29576;SDS011;16509;53.862;10.672;2023-02-01T09:41:26;13.50;;;2.17;;
29576;SDS011;16509;53.862;10.672;2023-02-01T09:50:04;14.32;;;2.20;;
29576;SDS011;16509;53.862;10.672;2023-02-01T09:52:54;17.92;;;2.28;;
29576;SDS011;16509;53.862;10.672;2023-02-01T09:55:59;10.75;;;1.75;;
29576;SDS011;16509;53.862;10.672;2023-02-01T09:58:38;10.55;;;1.85;;
29576;SDS011;16509;53.862;10.672;2023-02-01T10:01:23;12.63;;;2.30;;
29576;SDS011;16509;53.862;10.672;2023-02-01T10:03:56;14.38;;;2.00;;
29576;SDS011;16509;53.862;10.672;2023-02-01T10:08:59;23.00;;;2.72;;
29576;SDS011;16509;53.862;10.672;2023-02-01T10:17:39;14.10;;;2.58;;
29576;SDS011;16509;53.862;10.672;2023-02-01T10:28:49;15.68;;;2.08;;
29576;SDS011;16509;53.862;10.672;2023-02-01T10:31:16;19.63;;;2.92;;
29576;SDS011;16509;53.862;10.672;2023-02-01T10:33:51;25.63;;;3.05;;
29576;SDS011;16509;53.862;10.672;2023-02-01T10:36:26;27.80;;;3.15;;
29576;SDS011;16509;53.862;10.672;2023-02-01T10:41:34;32.95;;;3.60;;
29576;SDS011;16509;53.862;10.672;2023-02-01T10:44:03;22.92;;;3.45;;
29576;SDS011;16509;53.862;10.672;2023-02-01T10:46:38;23.75;;;3.00;;
29576;SDS011;16509;53.862;10.672;2023-02-01T10:49:04;15.25;;;2.08;;
29576;SDS011;16509;53.862;10.672;2023-02-01T10:51:45;17.77;;;2.35;;
29576;SDS011;16509;53.862;10.672;2023-02-01T10:54:38;28.83;;;2.92;;
29576;SDS011;16509;53.862;10.672;2023-02-01T10:57:24;25.20;;;3.60;;
29576;SDS011;16509;53.862;10.672;2023-02-01T10:59:54;21.65;;;2.45;;
29576;SDS011;16509;53.862;10.672;2023-02-01T11:02:25;25.10;;;3.25;;
29576;SDS011;16509;53.862;10.672;2023-02-01T11:05:09;16.95;;;2.78;;
29576;SDS011;16509;53.862;10.672;2023-02-01T11:07:37;18.73;;;2.45;;
29576;SDS011;16509;53.862;10.672;2023-02-01T11:10:33;41.20;;;4.85;;
29576;SDS011;16509;53.862;10.672;2023-02-01T11:13:02;30.90;;;4.40;;
29576;SDS011;16509;53.862;10.672;2023-02-01T11:15:31;23.58;;;3.40;;
29576;SDS011;16509;53.862;10.672;2023-02-01T11:17:56;22.27;;;3.58;;
29576;SDS011;16509;53.862;10.672;2023-02-01T11:20:44;33.00;;;3.92;;
29576;SDS011;16509;53.862;10.672;2023-02-01T11:23:18;12.38;;;3.17;;
29576;SDS011;16509;53.862;10.672;2023-02-01T11:25:47;20.67;;;2.55;;
29576;SDS011;16509;53.862;10.672;2023-02-01T11:28:14;10.00;;;2.15;;
29576;SDS011;16509;53.862;10.672;2023-02-01T11:30:42;11.90;;;1.83;;
29576;SDS011;16509;53.862;10.672;2023-02-01T11:33:15;12.20;;;2.20;;
29576;SDS011;16509;53.862;10.672;2023-02-01T11:35:47;12.32;;;1.60;;
29576;SDS011;16509;53.862;10.672;2023-02-01T11:38:21;17.67;;;2.03;;
29576;SDS011;16509;53.862;10.672;2023-02-01T11:40:53;11.27;;;1.80;;
29576;SDS011;16509;53.862;10.672;2023-02-01T11:43:23;10.30;;;1.33;;
29576;SDS011;16509;53.862;10.672;2023-02-01T11:46:00;4.28;;;1.38;;
29576;SDS011;16509;53.862;10.672;2023-02-01T11:48:31;11.55;;;2.25;;
29576;SDS011;16509;53.862;10.672;2023-02-01T11:53:46;14.23;;;1.85;;
29576;SDS011;16509;53.862;10.672;2023-02-01T11:59:03;13.17;;;1.83;;
29576;SDS011;16509;53.862;10.672;2023-02-01T12:06:55;18.88;;;2.13;;
29576;SDS011;16509;53.862;10.672;2023-02-01T12:18:27;18.23;;;2.15;;
29576;SDS011;16509;53.862;10.672;2023-02-01T12:40:42;9.20;;;1.45;;
29576;SDS011;16509;53.862;10.672;2023-02-01T12:46:15;5.72;;;1.20;;
29576;SDS011;16509;53.862;10.672;2023-02-01T12:51:31;6.80;;;1.67;;
29576;SDS011;16509;53.862;10.672;2023-02-01T12:54:02;4.75;;;1.50;;
29576;SDS011;16509;53.862;10.672;2023-02-01T12:56:41;9.27;;;1.85;;
29576;SDS011;16509;53.862;10.672;2023-02-01T12:59:23;8.05;;;1.63;;
29576;SDS011;16509;53.862;10.672;2023-02-01T13:01:58;7.65;;;2.22;;
29576;SDS011;16509;53.862;10.672;2023-02-01T13:04:56;12.35;;;2.15;;
29576;SDS011;16509;53.862;10.672;2023-02-01T13:07:42;3.15;;;1.25;;
29576;SDS011;16509;53.862;10.672;2023-02-01T13:10:20;5.60;;;1.50;;
29576;SDS011;16509;53.862;10.672;2023-02-01T13:15:56;8.05;;;1.60;;
29576;SDS011;16509;53.862;10.672;2023-02-01T13:18:41;6.05;;;1.50;;
29576;SDS011;16509;53.862;10.672;2023-02-01T13:21:16;7.70;;;1.38;;
29576;SDS011;16509;53.862;10.672;2023-02-01T13:26:24;5.60;;;1.52;;
29576;SDS011;16509;53.862;10.672;2023-02-01T13:28:53;9.98;;;1.90;;
29576;SDS011;16509;53.862;10.672;2023-02-01T13:45:20;2.80;;;0.90;;
29576;SDS011;16509;53.862;10.672;2023-02-01T13:54:41;6.47;;;1.02;;
29576;SDS011;16509;53.862;10.672;2023-02-01T13:57:15;1.83;;;0.80;;
29576;SDS011;16509;53.862;10.672;2023-02-01T14:00:05;3.20;;;0.88;;
29576;SDS011;16509;53.862;10.672;2023-02-01T14:03:02;5.00;;;1.30;;
29576;SDS011;16509;53.862;10.672;2023-02-01T14:21:15;5.53;;;0.88;;
29576;SDS011;16509;53.862;10.672;2023-02-01T14:23:56;4.32;;;1.15;;
29576;SDS011;16509;53.862;10.672;2023-02-01T14:29:00;1.73;;;1.20;;
29576;SDS011;16509;53.862;10.672;2023-02-01T14:31:33;2.63;;;1.10;;
29576;SDS011;16509;53.862;10.672;2023-02-01T14:34:11;10.02;;;2.20;;
29576;SDS011;16509;53.862;10.672;2023-02-01T14:36:58;7.55;;;1.70;;
29576;SDS011;16509;53.862;10.672;2023-02-01T14:42:15;8.13;;;1.33;;
29576;SDS011;16509;53.862;10.672;2023-02-01T14:55:57;16.80;;;2.28;;
29576;SDS011;16509;53.862;10.672;2023-02-01T15:01:15;10.07;;;1.48;;
29576;SDS011;16509;53.862;10.672;2023-02-01T15:03:52;8.02;;;1.45;;
29576;SDS011;16509;53.862;10.672;2023-02-01T15:08:57;12.20;;;2.00;;
29576;SDS011;16509;53.862;10.672;2023-02-01T15:12:32;14.35;;;1.58;;
29576;SDS011;16509;53.862;10.672;2023-02-01T15:17:57;7.55;;;1.60;;
29576;SDS011;16509;53.862;10.672;2023-02-01T15:20:27;12.60;;;2.03;;
29576;SDS011;16509;53.862;10.672;2023-02-01T15:23:05;24.10;;;2.35;;
29576;SDS011;16509;53.862;10.672;2023-02-01T15:25:40;9.98;;;1.58;;
29576;SDS011;16509;53.862;10.672;2023-02-01T15:28:08;3.65;;;1.50;;
29576;SDS011;16509;53.862;10.672;2023-02-01T15:30:39;13.85;;;2.58;;
29576;SDS011;16509;53.862;10.672;2023-02-01T15:33:15;15.48;;;2.03;;
29576;SDS011;16509;53.862;10.672;2023-02-01T15:35:46;15.93;;;1.55;;
29576;SDS011;16509;53.862;10.672;2023-02-01T15:40:57;10.93;;;1.88;;
29576;SDS011;16509;53.862;10.672;2023-02-01T15:43:29;9.07;;;1.70;;
29576;SDS011;16509;53.862;10.672;2023-02-01T15:46:01;22.92;;;2.63;;
29576;SDS011;16509;53.862;10.672;2023-02-01T15:51:26;32.03;;;3.45;;
29576;SDS011;16509;53.862;10.672;2023-02-01T15:54:07;9.35;;;1.98;;
29576;SDS011;16509;53.862;10.672;2023-02-01T15:56:44;21.00;;;2.45;;
29576;SDS011;16509;53.862;10.672;2023-02-01T15:59:21;17.27;;;2.03;;
29576;SDS011;16509;53.862;10.672;2023-02-01T16:01:49;10.93;;;2.67;;
29576;SDS011;16509;53.862;10.672;2023-02-01T16:04:25;29.23;;;3.15;;
29576;SDS011;16509;53.862;10.672;2023-02-01T16:06:56;16.50;;;2.78;;
29576;SDS011;16509;53.862;10.672;2023-02-01T16:09:34;27.75;;;3.17;;
29576;SDS011;16509;53.862;10.672;2023-02-01T16:12:20;20.48;;;3.90;;
29576;SDS011;16509;53.862;10.672;2023-02-01T16:15:10;20.60;;;3.00;;
29576;SDS011;16509;53.862;10.672;2023-02-01T16:17:36;23.83;;;3.05;;
29576;SDS011;16509;53.862;10.672;2023-02-01T16:20:02;27.08;;;2.13;;
29576;SDS011;16509;53.862;10.672;2023-02-01T16:22:30;29.85;;;2.20;;
29576;SDS011;16509;53.862;10.672;2023-02-01T16:25:02;25.17;;;3.28;;
29576;SDS011;16509;53.862;10.672;2023-02-01T16:27:30;26.33;;;4.22;;
29576;SDS011;16509;53.862;10.672;2023-02-01T16:29:55;18.40;;;2.80;;
29576;SDS011;16509;53.862;10.672;2023-02-01T16:32:25;24.40;;;3.05;;
29576;SDS011;16509;53.862;10.672;2023-02-01T16:34:51;24.60;;;3.17;;
29576;SDS011;16509;53.862;10.672;2023-02-01T16:37:22;21.45;;;3.05;;
29576;SDS011;16509;53.862;10.672;2023-02-01T16:39:49;31.88;;;2.65;;
29576;SDS011;16509;53.862;10.672;2023-02-01T16:42:15;25.30;;;4.05;;
29576;SDS011;16509;53.862;10.672;2023-02-01T16:44:41;22.42;;;2.97;;
29576;SDS011;16509;53.862;10.672;2023-02-01T16:47:10;24.30;;;3.50;;
29576;SDS011;16509;53.862;10.672;2023-02-01T16:49:42;26.90;;;3.10;;
29576;SDS011;16509;53.862;10.672;2023-02-01T16:52:11;17.73;;;3.00;;
29576;SDS011;16509;53.862;10.672;2023-02-01T16:57:10;23.45;;;3.05;;
29576;SDS011;16509;53.862;10.672;2023-02-01T16:59:37;24.55;;;3.28;;
29576;SDS011;16509;53.862;10.672;2023-02-01T17:02:03;22.48;;;3.65;;
29576;SDS011;16509;53.862;10.672;2023-02-01T17:04:28;29.73;;;3.22;;
29576;SDS011;16509;53.862;10.672;2023-02-01T17:06:54;30.83;;;3.28;;
29576;SDS011;16509;53.862;10.672;2023-02-01T17:09:21;27.23;;;3.45;;
29576;SDS011;16509;53.862;10.672;2023-02-01T17:11:48;21.60;;;3.60;;
29576;SDS011;16509;53.862;10.672;2023-02-01T17:14:17;25.95;;;3.83;;
29576;SDS011;16509;53.862;10.672;2023-02-01T17:16:45;32.38;;;4.95;;
29576;SDS011;16509;53.862;10.672;2023-02-01T17:19:14;40.53;;;3.88;;
29576;SDS011;16509;53.862;10.672;2023-02-01T17:21:46;32.42;;;3.78;;
29576;SDS011;16509;53.862;10.672;2023-02-01T17:24:17;27.40;;;3.13;;
29576;SDS011;16509;53.862;10.672;2023-02-01T17:26:44;16.73;;;3.63;;
29576;SDS011;16509;53.862;10.672;2023-02-01T17:29:10;27.33;;;3.13;;
29576;SDS011;16509;53.862;10.672;2023-02-01T17:31:38;26.65;;;3.33;;
29576;SDS011;16509;53.862;10.672;2023-02-01T17:34:05;37.58;;;3.53;;
29576;SDS011;16509;53.862;10.672;2023-02-01T17:36:34;34.45;;;4.13;;
29576;SDS011;16509;53.862;10.672;2023-02-01T17:39:00;17.13;;;2.60;;
29576;SDS011;16509;53.862;10.672;2023-02-01T17:41:26;33.45;;;3.58;;
29576;SDS011;16509;53.862;10.672;2023-02-01T17:43:52;29.67;;;3.30;;
29576;SDS011;16509;53.862;10.672;2023-02-01T17:46:18;25.25;;;3.55;;
29576;SDS011;16509;53.862;10.672;2023-02-01T17:48:45;30.02;;;3.88;;
29576;SDS011;16509;53.862;10.672;2023-02-01T17:51:20;36.85;;;4.63;;
29576;SDS011;16509;53.862;10.672;2023-02-01T17:53:51;29.63;;;3.78;;
29576;SDS011;16509;53.862;10.672;2023-02-01T17:56:19;21.48;;;3.15;;
29576;SDS011;16509;53.862;10.672;2023-02-01T17:58:47;33.88;;;4.90;;